Time;durP1;ratioP1;P1;durP2;ratioP2;P2;SDS_P1;SDS_P2;PMS_P1;PMS_P2;Temp;Humidity;BMP_temperature;BMP_pressure;BME280_temperature;BME280_humidity;BME280_pressure;Samples;Min_cycle;Max_cycle;Signal;HPM_P1;HPM_P2
2021/12/01 00:01:15;;;;;;;4.43;4.18;;;27.90;99.90;;;;;;5033204;28;20030;-77
2021/12/01 00:03:42;;;;;;;3.92;3.83;;;27.90;99.90;;;;;;5015406;28;20041;-76
2021/12/01 00:06:10;;;;;;;3.80;3.70;;;27.90;99.90;;;;;;5032433;28;20022;-76
2021/12/01 00:08:38;;;;;;;4.15;3.95;;;27.50;99.90;;;;;;5033623;28;20021;-76
2021/12/01 00:11:06;;;;;;;3.83;3.72;;;27.60;99.90;;;;;;5032476;28;20021;-77
2021/12/01 00:13:33;;;;;;;4.70;4.50;;;27.60;99.90;;;;;;5032085;28;20029;-75
2021/12/01 00:16:01;;;;;;;4.50;4.30;;;27.50;99.90;;;;;;5032321;28;20033;-77
2021/12/01 00:18:28;;;;;;;4.57;4.38;;;27.70;99.90;;;;;;5033742;28;20032;-75
2021/12/01 00:20:57;;;;;;;4.70;4.50;;;28.00;99.90;;;;;;5033853;28;20025;-76
2021/12/01 00:23:25;;;;;;;7.18;5.05;;;28.00;99.90;;;;;;5036644;28;20033;-76
2021/12/01 00:25:54;;;;;;;3.97;3.72;;;28.10;99.90;;;;;;5037490;28;20036;-76
2021/12/01 00:28:21;;;;;;;4.30;4.00;;;28.40;99.90;;;;;;5037368;28;20101;-75
2021/12/01 00:30:50;;;;;;;3.90;3.70;;;28.30;99.90;;;;;;5036985;28;20025;-77
2021/12/01 00:33:22;;;;;;;4.15;3.85;;;28.30;99.90;;;;;;5036834;28;20022;-77
2021/12/01 00:35:57;;;;;;;3.90;3.70;;;28.70;99.90;;;;;;5035766;28;20022;-77
2021/12/01 00:38:25;;;;;;;3.42;3.33;;;28.80;99.90;;;;;;5035570;28;20021;-77
2021/12/01 00:40:53;;;;;;;3.72;3.53;;;28.90;99.90;;;;;;5035415;28;20067;-77
2021/12/01 00:43:24;;;;;;;3.55;3.40;;;29.10;99.90;;;;;;5036679;28;20060;-78
2021/12/01 00:45:57;;;;;;;3.83;3.60;;;29.30;99.90;;;;;;5035943;28;20060;-76
2021/12/01 00:48:26;;;;;;;4.07;3.80;;;28.90;99.90;;;;;;5036998;28;20071;-77
2021/12/01 00:50:55;;;;;;;3.92;3.78;;;28.60;99.90;;;;;;5035834;28;20407;-76
2021/12/01 00:53:23;;;;;;;3.85;3.65;;;28.10;99.90;;;;;;5036819;28;20144;-76
2021/12/01 00:55:50;;;;;;;4.15;3.80;;;27.80;99.90;;;;;;5035631;28;20498;-77
2021/12/01 00:58:19;;;;;;;3.70;3.50;;;27.70;99.90;;;;;;5037165;28;20025;-76
2021/12/01 01:00:49;;;;;;;3.93;3.67;;;27.70;99.90;;;;;;5035315;28;20430;-76
2021/12/01 01:03:18;;;;;;;4.73;4.03;;;27.10;99.90;;;;;;5036652;28;20108;-75
2021/12/01 01:05:46;;;;;;;4.57;3.90;;;27.00;99.90;;;;;;5036837;28;20088;-76
2021/12/01 01:08:15;;;;;;;4.00;3.80;;;27.30;99.90;;;;;;5035119;28;20524;-78
2021/12/01 01:18:49;;;;;;;4.25;3.95;;;28.10;99.90;;;;;;5036567;28;20077;-76
2021/12/01 01:21:16;;;;;;;4.18;3.97;;;28.10;99.90;;;;;;5035098;28;20037;-77
2021/12/01 01:23:44;;;;;;;4.25;3.88;;;28.30;99.90;;;;;;5034812;28;20501;-77
2021/12/01 01:26:15;;;;;;;3.90;3.70;;;28.20;99.90;;;;;;5036343;28;20113;-77
2021/12/01 01:28:43;;;;;;;3.78;3.60;;;28.10;99.90;;;;;;5035151;28;20022;-76
2021/12/01 01:31:12;;;;;;;3.58;3.42;;;28.20;99.90;;;;;;5036077;28;20483;-77
2021/12/01 01:33:40;;;;;;;4.25;3.90;;;28.00;99.90;;;;;;5035906;28;20025;-75
2021/12/01 01:36:07;;;;;;;3.95;3.75;;;28.20;99.90;;;;;;5036430;28;20112;-75
2021/12/01 01:38:35;;;;;;;3.65;3.45;;;28.30;99.90;;;;;;5035260;28;20083;-77
2021/12/01 01:41:06;;;;;;;3.47;3.28;;;28.50;99.90;;;;;;5034483;28;20055;-78
2021/12/01 01:43:34;;;;;;;3.75;3.55;;;28.20;99.90;;;;;;5035326;28;20072;-78
2021/12/01 01:46:02;;;;;;;3.80;3.60;;;28.40;99.90;;;;;;5036067;28;20067;-76
2021/12/01 01:48:31;;;;;;;3.30;3.20;;;28.40;99.90;;;;;;5035810;28;20028;-75
2021/12/01 01:51:01;;;;;;;3.30;3.10;;;28.30;99.90;;;;;;5036177;28;20032;-75
2021/12/01 01:53:30;;;;;;;3.10;3.00;;;28.40;99.90;;;;;;5035445;28;20398;-77
2021/12/01 01:55:59;;;;;;;3.10;3.00;;;28.50;99.90;;;;;;5034273;28;20398;-76
2021/12/01 01:58:28;;;;;;;3.20;3.10;;;28.40;99.90;;;;;;5035878;28;20025;-77
2021/12/01 02:01:08;;;;;;;3.70;3.50;;;28.40;99.90;;;;;;5034126;28;20026;-76
2021/12/01 02:03:42;;;;;;;2.90;2.80;;;28.70;99.90;;;;;;5034275;28;20116;-77
2021/12/01 02:06:12;;;;;;;3.40;3.17;;;28.60;99.90;;;;;;5035324;28;20437;-76
2021/12/01 02:08:40;;;;;;;3.00;2.90;;;28.90;99.90;;;;;;5035370;28;20025;-76
2021/12/01 02:11:11;;;;;;;3.00;2.90;;;29.00;99.90;;;;;;5035365;28;20135;-76
2021/12/01 02:13:40;;;;;;;3.28;3.17;;;28.60;99.90;;;;;;5035716;28;20518;-77
2021/12/01 02:16:09;;;;;;;3.10;3.00;;;29.00;99.90;;;;;;5035336;28;20104;-76
2021/12/01 02:18:36;;;;;;;3.10;3.00;;;29.20;99.90;;;;;;5035273;28;20628;-76
2021/12/01 02:21:11;;;;;;;3.30;3.10;;;29.60;99.90;;;;;;5034811;28;20455;-77
2021/12/01 02:23:42;;;;;;;3.40;3.20;;;29.60;99.90;;;;;;5035319;28;20049;-77
2021/12/01 02:26:10;;;;;;;3.33;3.13;;;30.00;99.90;;;;;;5035334;28;20359;-77
2021/12/01 02:28:40;;;;;;;3.20;3.00;;;30.00;99.90;;;;;;5035105;28;20111;-75
2021/12/01 02:31:08;;;;;;;3.10;2.90;;;29.80;99.90;;;;;;5033809;28;20052;-76
2021/12/01 02:33:35;;;;;;;3.92;3.20;;;29.70;99.90;;;;;;5033654;28;20021;-76
2021/12/01 02:36:05;;;;;;;3.35;3.00;;;29.40;99.90;;;;;;5033784;28;20035;-76
2021/12/01 02:38:35;;;;;;;3.67;3.33;;;29.10;99.90;;;;;;5034851;28;20033;-74
2021/12/01 02:41:03;;;;;;;3.40;3.20;;;29.10;99.90;;;;;;5034983;28;20026;-76
2021/12/01 02:43:31;;;;;;;3.20;3.00;;;29.00;99.90;;;;;;5033647;28;20521;-76
2021/12/01 02:45:58;;;;;;;3.63;3.42;;;28.90;99.90;;;;;;5034105;28;20014;-74
2021/12/01 02:48:25;;;;;;;3.42;3.22;;;28.80;99.90;;;;;;5032888;28;20032;-74
2021/12/01 02:50:53;;;;;;;3.53;3.33;;;28.90;99.90;;;;;;5034378;28;20037;-74
2021/12/01 02:53:22;;;;;;;3.80;3.47;;;28.80;99.90;;;;;;5034114;28;20101;-74
2021/12/01 02:56:01;;;;;;;7.68;3.75;;;28.80;99.90;;;;;;5034326;28;20021;-72
2021/12/01 02:58:34;;;;;;;3.40;3.20;;;28.80;99.90;;;;;;5033955;28;20026;-76
2021/12/01 03:01:04;;;;;;;3.40;3.30;;;28.80;99.90;;;;;;5032956;28;20124;-75
2021/12/01 03:03:32;;;;;;;3.40;3.20;;;28.70;99.90;;;;;;5034362;28;20036;-76
2021/12/01 03:06:00;;;;;;;3.20;3.10;;;28.00;99.90;;;;;;5032781;28;20026;-76
2021/12/01 03:08:29;;;;;;;3.60;3.40;;;28.30;99.90;;;;;;5034168;28;20017;-75
2021/12/01 03:10:57;;;;;;;4.00;3.80;;;28.80;99.90;;;;;;5032577;28;20540;-75
2021/12/01 03:13:25;;;;;;;3.30;3.10;;;29.10;99.90;;;;;;5033703;28;20470;-76
2021/12/01 03:15:54;;;;;;;3.88;3.58;;;29.00;99.90;;;;;;5032509;28;20057;-76
2021/12/01 03:18:22;;;;;;;3.35;3.15;;;29.10;99.90;;;;;;5033868;28;20021;-76
2021/12/01 03:20:50;;;;;;;3.45;3.28;;;29.00;99.90;;;;;;5033745;28;20363;-75
2021/12/01 03:23:18;;;;;;;3.10;3.00;;;28.80;99.90;;;;;;5033490;28;20028;-75
2021/12/01 03:25:46;;;;;;;3.00;2.88;;;28.60;99.90;;;;;;5032415;28;20492;-75
2021/12/01 03:28:13;;;;;;;3.20;2.95;;;28.40;99.90;;;;;;5033639;28;20026;-75
2021/12/01 03:30:41;;;;;;;2.90;2.80;;;28.40;99.90;;;;;;5032286;28;20390;-75
2021/12/01 03:33:19;;;;;;;2.90;2.80;;;28.40;99.90;;;;;;5032590;28;20111;-75
2021/12/01 03:35:48;;;;;;;3.35;3.10;;;28.80;99.90;;;;;;5032543;28;20418;-75
2021/12/01 03:38:17;;;;;;;3.17;3.00;;;29.10;99.90;;;;;;5032531;28;20055;-75
2021/12/01 03:40:44;;;;;;;3.20;3.00;;;29.20;99.90;;;;;;5032244;28;20044;-76
2021/12/01 03:43:12;;;;;;;3.30;3.10;;;29.20;99.90;;;;;;5031911;28;20045;-75
2021/12/01 03:45:40;;;;;;;3.40;3.20;;;29.10;99.90;;;;;;5033728;28;20057;-75
2021/12/01 03:48:07;;;;;;;4.40;3.10;;;29.00;99.90;;;;;;5033795;28;20018;-74
2021/12/01 03:50:36;;;;;;;3.60;3.40;;;28.90;99.90;;;;;;5032078;28;20018;-75
2021/12/01 03:53:04;;;;;;;3.20;3.10;;;29.20;99.90;;;;;;5032079;28;20363;-75
2021/12/01 03:55:31;;;;;;;3.20;3.10;;;29.20;99.90;;;;;;5031849;28;20036;-74
2021/12/01 03:58:00;;;;;;;3.00;2.90;;;29.40;99.90;;;;;;5032678;28;20405;-74
2021/12/01 04:00:27;;;;;;;3.10;2.90;;;29.40;99.90;;;;;;5015551;28;20033;-75
2021/12/01 04:02:55;;;;;;;4.38;3.33;;;29.50;99.90;;;;;;5032506;28;20026;-76
2021/12/01 04:05:22;;;;;;;3.10;2.90;;;29.30;99.90;;;;;;5033599;28;20026;-75
2021/12/01 04:07:49;;;;;;;3.22;3.00;;;29.30;99.90;;;;;;5033301;28;20025;-75
2021/12/01 04:10:19;;;;;;;2.78;2.67;;;29.40;99.90;;;;;;5033307;28;20025;-76
2021/12/01 04:12:48;;;;;;;2.60;2.50;;;29.20;99.90;;;;;;5033441;28;20505;-75
2021/12/01 04:15:16;;;;;;;3.17;2.88;;;29.10;99.90;;;;;;5032016;28;20040;-74
2021/12/01 04:17:45;;;;;;;2.78;2.58;;;29.30;99.90;;;;;;5031454;28;20029;-74
2021/12/01 04:20:16;;;;;;;2.70;2.60;;;29.10;99.90;;;;;;5032897;28;20111;-74
2021/12/01 04:22:45;;;;;;;3.20;3.00;;;29.10;99.90;;;;;;5033006;28;20109;-75
2021/12/01 04:25:12;;;;;;;2.97;2.88;;;29.00;99.90;;;;;;5031464;28;20026;-74
2021/12/01 04:27:40;;;;;;;2.78;2.67;;;29.00;99.90;;;;;;5033232;28;20017;-74
2021/12/01 04:30:10;;;;;;;2.50;2.40;;;29.20;99.90;;;;;;5031858;28;20067;-74
2021/12/01 04:32:38;;;;;;;2.50;2.40;;;29.20;99.90;;;;;;5033326;28;20390;-76
2021/12/01 04:35:07;;;;;;;2.60;2.50;;;28.80;99.90;;;;;;5031789;28;20074;-77
2021/12/01 04:37:35;;;;;;;2.85;2.72;;;28.80;99.90;;;;;;5033309;28;20026;-76
2021/12/01 04:40:06;;;;;;;2.70;2.50;;;28.60;99.90;;;;;;5033369;28;20029;-76
2021/12/01 04:42:32;;;;;;;;;;;29.00;99.90;;;;;;5033737;28;20439;-76
2021/12/01 04:45:00;;;;;;;3.35;2.80;;;28.80;99.90;;;;;;5034370;28;19945;-78
2021/12/01 04:47:36;;;;;;;2.97;2.67;;;29.20;99.90;;;;;;5033061;28;20021;-75
2021/12/01 04:50:07;;;;;;;2.72;2.63;;;28.80;99.90;;;;;;5032181;28;20060;-77
2021/12/01 04:52:35;;;;;;;3.20;3.00;;;28.70;99.90;;;;;;5032020;28;20029;-76
2021/12/01 04:55:02;;;;;;;2.90;2.80;;;28.90;99.90;;;;;;5033542;28;20104;-77
2021/12/01 04:57:30;;;;;;;2.95;2.70;;;29.30;99.90;;;;;;5033280;28;20025;-76
2021/12/01 04:59:57;;;;;;;3.95;2.65;;;29.40;99.90;;;;;;5032813;28;20124;-76
2021/12/01 05:02:24;;;;;;;2.70;2.60;;;28.90;99.90;;;;;;5031881;28;20108;-77
2021/12/01 05:04:52;;;;;;;3.00;2.80;;;28.70;99.90;;;;;;5034662;28;20030;-77
2021/12/01 05:07:19;;;;;;;2.80;2.70;;;28.20;99.90;;;;;;5033979;28;20029;-76
2021/12/01 05:09:46;;;;;;;2.70;2.60;;;28.80;99.90;;;;;;5036828;28;20111;-77
2021/12/01 05:12:14;;;;;;;2.78;2.67;;;29.40;99.90;;;;;;5035262;28;20025;-78
2021/12/01 05:14:41;;;;;;;2.60;2.50;;;29.90;99.90;;;;;;5035588;28;20025;-79
2021/12/01 05:17:09;;;;;;;2.45;2.35;;;29.70;99.90;;;;;;5036427;28;20136;-76
2021/12/01 05:19:36;;;;;;;2.53;2.42;;;29.70;99.90;;;;;;5036255;28;20026;-77
2021/12/01 05:22:05;;;;;;;2.50;2.40;;;29.30;99.90;;;;;;5035962;28;20029;-75
2021/12/01 05:24:33;;;;;;;2.30;2.20;;;28.90;99.90;;;;;;5034842;28;20025;-75
2021/12/01 05:27:01;;;;;;;2.90;2.80;;;28.60;99.90;;;;;;5034505;28;20474;-75
2021/12/01 05:29:29;;;;;;;2.50;2.40;;;28.30;99.90;;;;;;5034635;28;20021;-74
2021/12/01 05:31:57;;;;;;;2.70;2.60;;;28.30;99.90;;;;;;5034313;28;20109;-77
2021/12/01 05:34:24;;;;;;;2.60;2.50;;;29.30;99.90;;;;;;5035602;28;20029;-76
2021/12/01 05:36:54;;;;;;;2.80;2.70;;;29.50;99.90;;;;;;5034408;28;20442;-76
2021/12/01 05:39:21;;;;;;;;;;;29.70;99.90;;;;;;5036116;28;20398;-74
2021/12/01 05:41:50;;;;;;;3.50;3.20;;;29.20;99.90;;;;;;5034454;28;20389;-76
2021/12/01 05:44:17;;;;;;;3.47;3.30;;;29.10;99.90;;;;;;5034183;28;20045;-75
2021/12/01 05:46:44;;;;;;;3.00;2.90;;;29.00;99.90;;;;;;5034554;28;20112;-75
2021/12/01 05:49:12;;;;;;;2.92;2.83;;;29.30;99.90;;;;;;5036182;28;20022;-76
2021/12/01 05:51:39;;;;;;;2.40;2.30;;;29.30;99.90;;;;;;5034166;28;20103;-77
2021/12/01 05:54:07;;;;;;;2.33;2.22;;;29.60;99.90;;;;;;5036101;28;20025;-77
2021/12/01 05:56:35;;;;;;;2.17;2.08;;;30.00;99.90;;;;;;5034299;28;20120;-76
2021/12/01 05:59:02;;;;;;;2.10;2.00;;;29.90;99.90;;;;;;5034391;28;20033;-75
2021/12/01 06:01:33;;;;;;;2.20;2.10;;;29.50;99.90;;;;;;5036163;28;20588;-76
2021/12/01 06:04:01;;;;;;;2.28;2.20;;;29.40;99.90;;;;;;5035172;28;20487;-76
2021/12/01 06:06:29;;;;;;;2.40;2.30;;;29.70;99.90;;;;;;5035519;28;20018;-76
2021/12/01 06:08:56;;;;;;;2.22;2.13;;;29.80;99.90;;;;;;5033999;28;20386;-75
2021/12/01 06:11:24;;;;;;;2.42;2.33;;;30.20;99.90;;;;;;5033870;28;20032;-75
2021/12/01 06:13:53;;;;;;;2.50;2.40;;;30.20;99.90;;;;;;5034194;28;20029;-75
2021/12/01 06:16:24;;;;;;;2.47;2.38;;;29.80;99.90;;;;;;5034204;28;20057;-75
2021/12/01 06:18:52;;;;;;;3.05;2.92;;;30.20;99.90;;;;;;5033754;28;20075;-77
2021/12/01 06:21:19;;;;;;;2.80;2.70;;;30.10;99.90;;;;;;5033345;28;20033;-76
2021/12/01 06:23:47;;;;;;;2.80;2.70;;;29.40;99.90;;;;;;5034665;28;20091;-75
2021/12/01 06:26:15;;;;;;;3.33;3.13;;;28.90;99.90;;;;;;5034601;28;20490;-76
2021/12/01 06:28:42;;;;;;;2.90;2.80;;;29.70;99.90;;;;;;5034614;28;20024;-76
2021/12/01 06:31:09;;;;;;;2.47;2.40;;;30.10;99.90;;;;;;5033749;28;20025;-75
2021/12/01 06:33:37;;;;;;;2.67;2.58;;;29.70;99.90;;;;;;5034654;28;20536;-75
2021/12/01 06:36:05;;;;;;;2.75;2.65;;;28.40;99.90;;;;;;5033512;28;20017;-74
2021/12/01 06:38:32;;;;;;;2.83;2.72;;;27.20;99.90;;;;;;5033494;28;20025;-77
2021/12/01 06:41:00;;;;;;;3.03;2.83;;;26.60;99.90;;;;;;5034697;28;20024;-76
2021/12/01 06:43:27;;;;;;;3.20;3.10;;;26.20;99.90;;;;;;5034411;28;20613;-77
2021/12/01 06:45:55;;;;;;;3.33;3.22;;;25.70;99.90;;;;;;5034409;28;20027;-77
2021/12/01 06:48:22;;;;;;;3.47;3.28;;;25.70;99.90;;;;;;5033224;28;20075;-75
2021/12/01 06:50:50;;;;;;;11.77;9.55;;;25.50;99.90;;;;;;5032745;28;20112;-73
2021/12/01 06:53:18;;;;;;;3.20;3.00;;;25.80;99.90;;;;;;5034334;28;20122;-75
2021/12/01 06:55:45;;;;;;;3.40;3.20;;;25.70;99.90;;;;;;5032923;28;20025;-74
2021/12/01 06:58:14;;;;;;;3.70;3.50;;;25.70;99.90;;;;;;5034204;28;20117;-73
2021/12/01 07:00:41;;;;;;;3.80;3.60;;;26.30;99.90;;;;;;5033897;28;20025;-75
2021/12/01 07:03:09;;;;;;;4.20;4.00;;;26.50;99.90;;;;;;5033830;28;20108;-74
2021/12/01 07:05:36;;;;;;;3.70;3.60;;;26.40;99.90;;;;;;5033989;28;20075;-75
2021/12/01 07:08:05;;;;;;;4.00;3.70;;;26.10;99.90;;;;;;5032580;28;20405;-74
2021/12/01 07:10:33;;;;;;;3.80;3.50;;;25.60;99.90;;;;;;5033754;28;20025;-74
2021/12/01 07:13:00;;;;;;;3.58;3.40;;;25.40;99.90;;;;;;5032612;28;20116;-74
2021/12/01 07:15:28;;;;;;;3.80;3.50;;;25.00;99.90;;;;;;5032588;28;20041;-74
2021/12/01 07:17:55;;;;;;;3.30;3.10;;;24.80;99.90;;;;;;5032416;28;20026;-75
2021/12/01 07:20:22;;;;;;;3.20;3.10;;;24.50;99.90;;;;;;5033700;28;20032;-74
2021/12/01 07:22:50;;;;;;;2.95;2.75;;;24.30;99.90;;;;;;5033716;28;20056;-75
2021/12/01 07:25:17;;;;;;;3.75;3.55;;;24.20;99.90;;;;;;5033765;28;20504;-76
2021/12/01 07:27:45;;;;;;;3.80;3.70;;;24.10;99.90;;;;;;5032333;28;20486;-75
2021/12/01 07:30:12;;;;;;;3.90;3.80;;;23.90;99.90;;;;;;5031722;28;20018;-75
2021/12/01 07:32:40;;;;;;;3.80;3.60;;;24.00;99.90;;;;;;5033546;28;20106;-76
2021/12/01 07:35:08;;;;;;;6.53;6.13;;;23.90;99.90;;;;;;5032089;28;20057;-74
2021/12/01 07:37:35;;;;;;;4.20;4.05;;;23.80;99.90;;;;;;5032025;28;20033;-75
2021/12/01 07:40:03;;;;;;;3.90;3.70;;;23.70;99.90;;;;;;5032161;28;20033;-75
2021/12/01 07:42:31;;;;;;;5.20;4.90;;;23.60;99.90;;;;;;5033161;28;20045;-73
2021/12/01 07:44:58;;;;;;;7.10;6.60;;;23.40;99.90;;;;;;5033143;28;20128;-77
2021/12/01 07:47:26;;;;;;;3.65;3.35;;;23.30;99.90;;;;;;5033472;28;20029;-76
2021/12/01 07:49:53;;;;;;;4.30;4.10;;;23.30;99.90;;;;;;5015886;28;20443;-78
2021/12/01 07:52:20;;;;;;;8.27;7.45;;;23.30;99.90;;;;;;5032422;28;20538;-74
2021/12/01 07:54:48;;;;;;;4.28;4.00;;;23.30;99.90;;;;;;5033620;28;20026;-74
2021/12/01 07:57:16;;;;;;;5.10;4.80;;;23.30;99.90;;;;;;5033204;28;20025;-75
2021/12/01 07:59:44;;;;;;;4.93;4.70;;;23.20;99.90;;;;;;5033005;28;20029;-76
2021/12/01 08:02:11;;;;;;;5.10;4.80;;;23.10;99.90;;;;;;5031755;28;20037;-76
2021/12/01 08:04:38;;;;;;;5.35;5.00;;;23.00;99.90;;;;;;5031556;28;20021;-75
2021/12/01 08:07:06;;;;;;;5.57;5.30;;;23.00;99.90;;;;;;5032100;28;20032;-74
2021/12/01 08:09:33;;;;;;;5.82;5.43;;;22.80;99.90;;;;;;5032376;28;20116;-76
2021/12/01 08:12:01;;;;;;;6.28;6.00;;;22.80;99.90;;;;;;5033409;28;20017;-77
2021/12/01 08:14:29;;;;;;;7.05;6.70;;;22.70;99.90;;;;;;5031821;28;20418;-77
2021/12/01 08:16:56;;;;;;;7.80;7.40;;;22.70;99.90;;;;;;5031900;28;20486;-76
2021/12/01 08:19:23;;;;;;;7.90;7.60;;;22.60;99.90;;;;;;5032239;28;20500;-75
2021/12/01 08:21:50;;;;;;;7.47;7.13;;;22.60;99.90;;;;;;5032163;28;20394;-76
2021/12/01 08:24:19;;;;;;;8.00;7.70;;;22.50;99.90;;;;;;5033168;28;20029;-74
2021/12/01 08:26:47;;;;;;;8.77;8.48;;;22.40;99.90;;;;;;5033365;28;20022;-74
2021/12/01 08:29:15;;;;;;;8.80;8.40;;;22.30;99.90;;;;;;5033614;28;20021;-75
2021/12/01 08:31:43;;;;;;;8.82;8.30;;;22.20;99.90;;;;;;5032069;28;20112;-74
2021/12/01 08:34:10;;;;;;;9.13;8.82;;;22.30;99.90;;;;;;5033308;28;20470;-74
2021/12/01 08:36:39;;;;;;;9.20;8.73;;;22.20;99.90;;;;;;5032909;28;20029;-76
2021/12/01 08:39:07;;;;;;;10.07;9.38;;;22.20;99.90;;;;;;5031777;28;20030;-76
2021/12/01 08:41:34;;;;;;;10.40;10.00;;;22.20;99.90;;;;;;5032297;28;20025;-76
2021/12/01 08:44:03;;;;;;;10.20;9.70;;;22.10;99.90;;;;;;5034644;28;20048;-75
2021/12/01 08:46:30;;;;;;;10.82;10.32;;;22.00;99.90;;;;;;5037484;28;20368;-76
2021/12/01 08:48:58;;;;;;;10.98;10.57;;;22.10;99.90;;;;;;5035392;28;20022;-76
2021/12/01 08:51:27;;;;;;;11.90;11.30;;;22.20;99.90;;;;;;5036076;28;20077;-77
2021/12/01 08:53:54;;;;;;;12.23;11.63;;;22.10;99.90;;;;;;5036525;28;20025;-77
2021/12/01 08:56:23;;;;;;;12.23;11.73;;;21.90;99.90;;;;;;5036722;28;20025;-77
2021/12/01 08:58:50;;;;;;;12.45;11.88;;;21.80;99.90;;;;;;5037023;28;20364;-77
2021/12/01 09:01:18;;;;;;;12.07;11.68;;;21.70;99.90;;;;;;5036487;28;20474;-76
2021/12/01 09:03:45;;;;;;;12.27;11.80;;;21.80;99.90;;;;;;5036275;28;20040;-75
2021/12/01 09:06:12;;;;;;;12.90;12.40;;;21.80;99.90;;;;;;5035165;28;20462;-75
2021/12/01 09:08:40;;;;;;;12.57;12.07;;;21.60;99.90;;;;;;5036635;28;20109;-75
2021/12/01 09:11:09;;;;;;;12.30;11.80;;;21.60;99.90;;;;;;5036906;28;20075;-76
2021/12/01 09:13:37;;;;;;;12.98;12.48;;;21.60;99.90;;;;;;5035443;28;20021;-76
2021/12/01 09:16:06;;;;;;;12.38;11.80;;;21.20;99.90;;;;;;5036394;28;20018;-77
2021/12/01 09:18:33;;;;;;;12.73;12.23;;;21.30;99.90;;;;;;5036370;28;20053;-76
2021/12/01 09:21:02;;;;;;;12.75;12.25;;;21.50;99.90;;;;;;5035189;28;20455;-76
2021/12/01 09:23:29;;;;;;;13.65;13.15;;;21.40;99.90;;;;;;5036481;28;20018;-74
2021/12/01 09:25:57;;;;;;;14.32;13.73;;;21.50;99.90;;;;;;5035163;28;20021;-77
2021/12/01 09:28:26;;;;;;;14.68;14.07;;;21.40;99.90;;;;;;5036627;28;20022;-77
2021/12/01 09:30:55;;;;;;;15.02;14.27;;;21.30;99.90;;;;;;5036101;28;20036;-76
2021/12/01 09:33:28;;;;;;;15.30;14.70;;;21.20;99.90;;;;;;5036004;28;20022;-75
2021/12/01 09:36:11;;;;;;;15.40;14.68;;;21.20;99.90;;;;;;5035539;28;20034;-76
2021/12/01 09:38:38;;;;;;;15.57;14.88;;;21.20;99.90;;;;;;5034773;28;20022;-75
2021/12/01 09:41:08;;;;;;;15.43;14.82;;;21.20;99.90;;;;;;5035838;28;20049;-75
2021/12/01 09:43:35;;;;;;;15.60;15.00;;;21.20;99.90;;;;;;5034550;28;20041;-75
2021/12/01 09:46:05;;;;;;;16.35;15.55;;;21.20;99.90;;;;;;5035831;28;20032;-75
2021/12/01 09:48:34;;;;;;;15.45;14.75;;;21.20;99.90;;;;;;5034489;28;20036;-75
2021/12/01 09:51:02;;;;;;;15.18;14.68;;;21.10;99.90;;;;;;5035908;28;20505;-75
2021/12/01 09:53:29;;;;;;;15.63;15.02;;;21.00;99.90;;;;;;5035331;28;20018;-74
2021/12/01 09:55:57;;;;;;;15.52;14.88;;;21.00;99.90;;;;;;5035878;28;20379;-75
2021/12/01 09:58:31;;;;;;;15.35;14.75;;;21.10;99.90;;;;;;5034400;28;20075;-73
2021/12/01 10:01:06;;;;;;;15.93;15.32;;;21.00;99.90;;;;;;5035705;28;20018;-75
2021/12/01 10:03:34;;;;;;;15.90;15.25;;;21.00;99.90;;;;;;5035320;28;20022;-74
2021/12/01 10:06:09;;;;;;;16.30;15.63;;;21.00;99.90;;;;;;5033814;28;20095;-74
2021/12/01 10:08:40;;;;;;;17.02;16.13;;;21.00;99.90;;;;;;5036152;28;20065;-76
2021/12/01 10:11:10;;;;;;;17.08;16.30;;;20.90;99.90;;;;;;5035167;28;20071;-75
2021/12/01 10:13:41;;;;;;;17.17;16.50;;;20.90;99.90;;;;;;5035307;28;20021;-75
2021/12/01 10:16:12;;;;;;;16.95;16.25;;;20.90;99.90;;;;;;5035007;28;20029;-75
2021/12/01 10:18:46;;;;;;;18.40;17.60;;;20.90;99.90;;;;;;5035358;28;20052;-73
2021/12/01 10:21:19;;;;;;;17.25;16.55;;;20.90;99.90;;;;;;5033444;28;20509;-73
2021/12/01 10:23:52;;;;;;;17.60;16.85;;;20.90;99.90;;;;;;5033271;28;20099;-73
2021/12/01 10:26:23;;;;;;;17.70;17.10;;;21.00;99.90;;;;;;5034700;28;20018;-74
2021/12/01 10:29:00;;;;;;;18.30;17.50;;;20.90;99.90;;;;;;5034583;28;20436;-73
2021/12/01 10:31:44;;;;;;;17.92;17.23;;;20.80;99.90;;;;;;5033314;28;20121;-73
2021/12/01 10:34:32;;;;;;;17.60;16.90;;;20.90;99.90;;;;;;5034607;28;20082;-74
2021/12/01 10:37:23;;;;;;;18.20;17.38;;;20.80;99.90;;;;;;5033229;28;20075;-73
2021/12/01 10:40:20;;;;;;;17.83;17.13;;;20.80;99.90;;;;;;5035214;28;20474;-76
2021/12/01 10:42:53;;;;;;;18.92;18.00;;;20.80;99.90;;;;;;5033581;28;20572;-75
2021/12/01 10:45:35;;;;;;;18.52;17.63;;;20.80;99.90;;;;;;5034552;28;20095;-76
2021/12/01 10:48:05;;;;;;;18.00;17.20;;;20.70;99.90;;;;;;5034850;28;20022;-76
2021/12/01 10:50:35;;;;;;;17.38;16.67;;;20.70;99.90;;;;;;5033285;28;20021;-75
2021/12/01 10:53:14;;;;;;;18.58;17.77;;;20.70;99.90;;;;;;5033847;28;20046;-76
2021/12/01 10:55:51;;;;;;;19.02;18.13;;;20.60;99.90;;;;;;5034882;28;20512;-76
2021/12/01 10:58:21;;;;;;;18.20;17.35;;;20.60;99.90;;;;;;5033694;28;20390;-75
2021/12/01 11:00:51;;;;;;;20.00;19.10;;;20.60;99.90;;;;;;5035245;28;20025;-77
2021/12/01 11:03:19;;;;;;;19.20;18.40;;;20.50;99.90;;;;;;5017760;28;20120;-76
2021/12/01 11:05:54;;;;;;;19.20;18.30;;;20.50;99.90;;;;;;5034125;28;20386;-75
2021/12/01 11:08:29;;;;;;;18.80;18.10;;;20.50;99.90;;;;;;5033615;28;20075;-78
2021/12/01 11:11:14;;;;;;;19.50;18.50;;;20.50;99.90;;;;;;5033284;28;20116;-77
2021/12/01 11:13:47;;;;;;;18.23;17.52;;;20.50;99.90;;;;;;5033423;28;20021;-76
2021/12/01 11:16:18;;;;;;;18.75;17.95;;;20.40;99.90;;;;;;5034395;28;20018;-75
2021/12/01 11:18:51;;;;;;;19.15;18.35;;;20.50;99.90;;;;;;5032963;28;20029;-75
2021/12/01 11:21:23;;;;;;;19.25;18.40;;;20.50;99.90;;;;;;5033227;28;20033;-75
2021/12/01 11:24:04;;;;;;;19.42;18.63;;;20.60;99.90;;;;;;5034388;28;20022;-75
2021/12/01 11:26:33;;;;;;;19.58;18.67;;;20.40;99.90;;;;;;5033115;28;20056;-76
2021/12/01 11:29:11;;;;;;;19.67;18.83;;;20.40;99.90;;;;;;5032810;28;20048;-75
2021/12/01 11:31:42;;;;;;;20.70;19.80;;;20.30;99.90;;;;;;5032885;28;20026;-74
2021/12/01 11:34:12;;;;;;;20.50;19.60;;;20.30;99.90;;;;;;5032730;28;20025;-75
2021/12/01 11:36:58;;;;;;;19.95;19.17;;;20.30;99.90;;;;;;5032959;28;20032;-73
2021/12/01 11:39:30;;;;;;;20.05;19.15;;;20.30;99.90;;;;;;5033022;28;20037;-74
2021/12/01 11:41:57;;;;;;;21.10;20.20;;;20.30;99.90;;;;;;5032887;28;20032;-75
2021/12/01 11:44:25;;;;;;;21.48;20.58;;;20.20;99.90;;;;;;5033602;28;20041;-75
2021/12/01 11:46:53;;;;;;;21.42;20.52;;;20.30;99.90;;;;;;5032612;28;20030;-76
2021/12/01 11:49:24;;;;;;;22.48;21.40;;;20.20;99.90;;;;;;5033801;28;20056;-75
2021/12/01 11:52:04;;;;;;;20.98;20.10;;;20.20;99.90;;;;;;5034176;28;20017;-75
2021/12/01 11:54:34;;;;;;;21.73;20.60;;;20.20;99.90;;;;;;5034188;28;20119;-76
2021/12/01 11:57:09;;;;;;;21.90;20.90;;;20.20;99.90;;;;;;5034442;28;20418;-73
2021/12/01 11:59:38;;;;;;;22.25;21.25;;;20.20;99.90;;;;;;5032726;28;20032;-74
2021/12/01 12:02:18;;;;;;;22.25;21.15;;;20.20;99.90;;;;;;5033805;28;20032;-75
2021/12/01 12:04:50;;;;;;;22.40;21.40;;;20.20;99.90;;;;;;5033943;28;20164;-75
2021/12/01 12:07:29;;;;;;;22.60;21.55;;;20.10;99.90;;;;;;5033954;28;20029;-75
2021/12/01 12:10:13;;;;;;;22.50;21.40;;;20.10;99.90;;;;;;5032743;28;20048;-76
2021/12/01 12:13:08;;;;;;;21.90;20.90;;;20.10;99.90;;;;;;5033869;28;20474;-75
2021/12/01 12:15:50;;;;;;;22.70;21.60;;;20.10;99.90;;;;;;5032085;28;20525;-75
2021/12/01 12:18:41;;;;;;;21.85;20.85;;;20.10;99.90;;;;;;5037706;28;20130;-75
2021/12/01 12:24:16;;;;;;;22.25;21.05;;;20.00;99.90;;;;;;5037548;28;20564;-75
2021/12/01 12:26:49;;;;;;;22.50;21.50;;;20.00;99.90;;;;;;5037558;28;20021;-75
2021/12/01 12:29:24;;;;;;;22.80;21.70;;;20.00;99.90;;;;;;5037219;28;20022;-75
2021/12/01 12:31:54;;;;;;;21.83;20.92;;;19.90;99.90;;;;;;5037122;28;20017;-76
2021/12/01 12:34:23;;;;;;;22.23;21.08;;;19.90;99.90;;;;;;5037388;28;20101;-75
2021/12/01 12:36:59;;;;;;;21.48;20.48;;;19.90;99.90;;;;;;5037558;28;20030;-76
2021/12/01 12:39:30;;;;;;;23.48;22.27;;;19.90;99.90;;;;;;5037696;28;20033;-75
2021/12/01 12:42:08;;;;;;;22.52;21.35;;;19.80;99.90;;;;;;5037312;28;20064;-76
2021/12/01 12:44:46;;;;;;;22.70;21.52;;;19.70;99.90;;;;;;5036322;28;20044;-75
2021/12/01 12:47:25;;;;;;;21.95;20.95;;;19.80;99.90;;;;;;5037586;28;20551;-75
2021/12/01 12:49:59;;;;;;;21.73;20.83;;;19.80;99.90;;;;;;5036996;28;20071;-75
2021/12/01 12:52:26;;;;;;;22.13;21.02;;;19.70;99.90;;;;;;5036808;28;20072;-75
2021/12/01 12:54:55;;;;;;;22.35;21.33;;;19.70;99.90;;;;;;5036826;28;20037;-75
2021/12/01 12:57:25;;;;;;;23.08;22.02;;;19.70;99.90;;;;;;5036992;28;20037;-75
2021/12/01 13:00:38;;;;;;;24.23;23.13;;;19.70;99.90;;;;;;5035991;28;20030;-75
2021/12/01 13:03:24;;;;;;;24.65;23.33;;;19.50;99.90;;;;;;5034599;28;20498;-75
2021/12/01 13:05:58;;;;;;;24.85;23.75;;;19.60;99.90;;;;;;5036940;28;20101;-75